Time;durP1;ratioP1;P1;durP2;ratioP2;P2;SDS_P1;SDS_P2;PMS_P1;PMS_P2;Temp;Humidity;BMP_temperature;BMP_pressure;BME280_temperature;BME280_humidity;BME280_pressure;Samples;Min_cycle;Max_cycle;Signal;HPM_P1;HPM_P2
2021/08/29 00:01:22;;;;;;;4.03;3.73;;;13.60;99.90;;;;;;6304804;22;20234;-59
2021/08/29 00:03:48;;;;;;;4.60;3.90;;;13.50;99.90;;;;;;6285309;22;20262;-59
2021/08/29 00:06:13;;;;;;;4.23;3.83;;;13.40;99.90;;;;;;6274321;22;20208;-61
2021/08/29 00:08:39;;;;;;;4.57;4.10;;;14.40;99.90;;;;;;6272152;22;20477;-61
2021/08/29 00:11:04;;;;;;;4.23;3.87;;;13.40;99.90;;;;;;6273594;22;20473;-61
2021/08/29 00:13:30;;;;;;;5.70;4.47;;;13.30;99.90;;;;;;6247223;22;20638;-61
2021/08/29 00:15:55;;;;;;;4.67;4.27;;;13.40;99.90;;;;;;6273058;22;20160;-61
2021/08/29 00:18:21;;;;;;;5.73;4.10;;;13.50;99.90;;;;;;6274953;22;20223;-60
2021/08/29 00:20:47;;;;;;;4.10;3.67;;;13.50;99.90;;;;;;6274667;22;20155;-61
2021/08/29 00:23:12;;;;;;;4.63;4.20;;;13.40;99.90;;;;;;6275213;22;20193;-59
2021/08/29 00:25:38;;;;;;;4.50;4.10;;;13.30;99.90;;;;;;6274400;22;20147;-57
2021/08/29 00:28:04;;;;;;;5.00;4.40;;;13.30;99.90;;;;;;6274587;22;20144;-58
2021/08/29 00:30:30;;;;;;;4.37;3.97;;;13.30;99.90;;;;;;6273861;22;20143;-57
2021/08/29 00:32:55;;;;;;;4.40;4.00;;;13.40;99.90;;;;;;6274489;22;20193;-61
2021/08/29 00:35:21;;;;;;;4.77;4.30;;;13.40;99.90;;;;;;6274555;22;20486;-59
2021/08/29 00:37:47;;;;;;;4.60;4.13;;;13.50;99.90;;;;;;6274608;22;20154;-59
2021/08/29 00:40:20;;;;;;;4.93;4.10;;;13.40;99.90;;;;;;6274250;22;20154;-60
2021/08/29 00:42:49;;;;;;;4.33;3.93;;;13.30;99.90;;;;;;6274546;22;20613;-57
2021/08/29 00:45:16;;;;;;;6.10;4.70;;;13.30;99.90;;;;;;6274580;22;20193;-57
2021/08/29 00:47:42;;;;;;;5.07;4.63;;;13.30;99.90;;;;;;6274732;22;20169;-60
2021/08/29 00:50:08;;;;;;;5.40;4.63;;;13.20;99.90;;;;;;6274556;22;20199;-57
2021/08/29 00:52:43;;;;;;;4.73;4.33;;;13.20;99.90;;;;;;6274430;22;20150;-59
2021/08/29 00:55:10;;;;;;;4.70;4.30;;;13.30;99.90;;;;;;6274696;22;20168;-59
2021/08/29 00:57:39;;;;;;;5.07;4.67;;;13.30;99.90;;;;;;6274189;22;20147;-60
2021/08/29 01:00:06;;;;;;;5.00;4.53;;;13.30;99.90;;;;;;6273524;22;20229;-59
2021/08/29 01:02:33;;;;;;;4.83;4.43;;;13.20;99.90;;;;;;6274134;22;20218;-57
2021/08/29 01:05:18;;;;;;;5.57;5.07;;;13.30;99.90;;;;;;6246132;22;20617;-56
2021/08/29 01:07:52;;;;;;;5.23;4.83;;;13.30;99.90;;;;;;6274623;22;20152;-60
2021/08/29 01:10:24;;;;;;;5.33;4.80;;;13.40;99.90;;;;;;6274302;22;20158;-60
2021/08/29 01:12:54;;;;;;;5.50;4.73;;;13.50;99.90;;;;;;6272932;22;20235;-61
2021/08/29 01:15:23;;;;;;;5.67;4.70;;;13.60;99.90;;;;;;6273914;22;20147;-61
2021/08/29 01:17:50;;;;;;;4.90;4.30;;;13.60;99.90;;;;;;6274295;22;20193;-60
2021/08/29 01:20:21;;;;;;;5.07;4.17;;;13.60;99.90;;;;;;6274131;22;20162;-58
2021/08/29 01:22:48;;;;;;;5.23;4.73;;;13.70;99.90;;;;;;6274089;22;20194;-60
2021/08/29 01:25:21;;;;;;;5.03;4.60;;;13.70;99.90;;;;;;6274521;22;20147;-60
2021/08/29 01:27:52;;;;;;;6.27;4.70;;;13.70;99.90;;;;;;6274083;22;20148;-59
2021/08/29 01:30:18;;;;;;;5.60;5.10;;;13.70;99.90;;;;;;6274008;22;20485;-60
2021/08/29 01:32:44;;;;;;;5.27;4.77;;;13.60;99.90;;;;;;6273966;22;20254;-59
2021/08/29 01:35:12;;;;;;;5.03;4.63;;;13.70;99.90;;;;;;6274625;22;20157;-59
2021/08/29 01:37:39;;;;;;;5.53;4.70;;;13.60;99.90;;;;;;6274378;22;20152;-59
2021/08/29 01:40:05;;;;;;;7.10;4.70;;;13.70;99.90;;;;;;6273961;22;20146;-56
2021/08/29 01:42:31;;;;;;;5.77;5.27;;;13.70;99.90;;;;;;6247162;22;20286;-59
2021/08/29 01:44:58;;;;;;;6.30;5.50;;;13.50;99.90;;;;;;6273934;22;20178;-60
2021/08/29 01:47:23;;;;;;;8.30;5.50;;;13.50;99.90;;;;;;6274149;22;20173;-59
2021/08/29 01:49:49;;;;;;;5.13;4.70;;;13.50;99.90;;;;;;6273744;22;20143;-58
2021/08/29 01:52:16;;;;;;;4.77;4.37;;;13.60;99.90;;;;;;6273709;22;20158;-59
2021/08/29 01:54:41;;;;;;;4.40;4.00;;;13.60;99.90;;;;;;6273647;22;20210;-57
2021/08/29 01:57:14;;;;;;;5.07;4.57;;;13.80;99.90;;;;;;6273972;22;20489;-57
2021/08/29 01:59:42;;;;;;;4.60;4.20;;;13.90;99.90;;;;;;6273752;22;20609;-58
2021/08/29 02:02:09;;;;;;;5.50;4.00;;;13.90;99.90;;;;;;6274054;22;20146;-57
2021/08/29 02:04:35;;;;;;;4.33;3.93;;;13.80;99.90;;;;;;6273509;22;20203;-55
2021/08/29 02:07:12;;;;;;;4.63;3.80;;;13.80;99.90;;;;;;6274011;22;20146;-60
2021/08/29 02:09:42;;;;;;;3.23;3.00;;;13.80;99.90;;;;;;6273471;22;20132;-56
2021/08/29 02:12:09;;;;;;;3.73;3.43;;;13.80;99.90;;;;;;6273899;22;20170;-59
2021/08/29 02:14:43;;;;;;;3.50;3.20;;;13.80;99.90;;;;;;6273632;22;20176;-60
2021/08/29 02:17:11;;;;;;;3.60;3.30;;;13.90;99.90;;;;;;6273848;22;20134;-57
2021/08/29 02:19:38;;;;;;;3.40;3.10;;;14.00;99.90;;;;;;6273900;22;20161;-58
2021/08/29 02:22:05;;;;;;;3.07;2.87;;;14.10;99.90;;;;;;6273694;22;20151;-61
2021/08/29 02:24:32;;;;;;;3.87;2.90;;;14.00;99.90;;;;;;6273574;22;20179;-58
2021/08/29 02:26:58;;;;;;;3.67;2.80;;;14.00;99.90;;;;;;6273682;22;20161;-59
2021/08/29 02:29:24;;;;;;;3.00;2.67;;;14.10;99.90;;;;;;6273457;22;20179;-57
2021/08/29 02:31:51;;;;;;;3.30;2.70;;;14.00;99.90;;;;;;6273540;22;20149;-59
2021/08/29 02:34:17;;;;;;;3.00;2.70;;;13.80;99.90;;;;;;6273652;22;20206;-59
2021/08/29 02:36:44;;;;;;;2.63;2.43;;;13.70;99.90;;;;;;6273678;22;20183;-58
2021/08/29 02:39:12;;;;;;;3.73;2.50;;;13.50;99.90;;;;;;6273255;22;20151;-60
2021/08/29 02:41:38;;;;;;;2.57;2.37;;;13.20;99.90;;;;;;6273839;22;20154;-56
2021/08/29 02:44:05;;;;;;;2.60;2.40;;;13.10;99.90;;;;;;6273516;22;20647;-59
2021/08/29 02:46:31;;;;;;;2.80;2.60;;;13.00;99.90;;;;;;6246356;22;20176;-56
2021/08/29 02:48:57;;;;;;;2.67;2.47;;;12.90;99.90;;;;;;6273304;22;20612;-60
2021/08/29 02:51:24;;;;;;;3.33;2.60;;;12.80;99.90;;;;;;6273607;22;20151;-59
2021/08/29 02:53:50;;;;;;;4.23;2.53;;;12.90;99.90;;;;;;6273479;22;20556;-57
2021/08/29 02:56:18;;;;;;;2.80;2.60;;;13.00;99.90;;;;;;6273443;22;20267;-59
2021/08/29 02:58:45;;;;;;;2.63;2.30;;;13.20;99.90;;;;;;6246121;22;20157;-58
2021/08/29 03:01:11;;;;;;;2.73;2.53;;;13.30;99.90;;;;;;6273648;22;20236;-58
2021/08/29 03:03:37;;;;;;;2.10;2.00;;;13.50;99.90;;;;;;6273236;22;20792;-61
2021/08/29 03:06:03;;;;;;;2.60;2.40;;;13.50;99.90;;;;;;6273623;22;20180;-58
2021/08/29 03:08:28;;;;;;;2.50;2.30;;;13.50;99.90;;;;;;6273092;22;20176;-59
2021/08/29 03:10:54;;;;;;;2.63;2.43;;;13.30;99.90;;;;;;6273372;22;20149;-58
2021/08/29 03:13:20;;;;;;;3.43;2.50;;;13.40;99.90;;;;;;6273351;22;20466;-60
2021/08/29 03:15:46;;;;;;;2.67;2.50;;;13.50;99.90;;;;;;6273533;22;20150;-57
2021/08/29 03:18:11;;;;;;;2.70;2.50;;;13.60;99.90;;;;;;6273185;22;20157;-56
2021/08/29 03:20:38;;;;;;;2.30;2.10;;;13.50;99.90;;;;;;6273238;22;20150;-59
2021/08/29 03:23:03;;;;;;;2.73;2.53;;;13.40;99.90;;;;;;6273190;22;20177;-60
2021/08/29 03:25:29;;;;;;;3.73;2.77;;;13.20;99.90;;;;;;6273748;22;20728;-61
2021/08/29 03:27:55;;;;;;;2.90;2.70;;;13.10;99.90;;;;;;6273653;22;20529;-57
2021/08/29 03:30:21;;;;;;;3.40;3.10;;;13.10;99.90;;;;;;6273059;22;20203;-57
2021/08/29 03:32:46;;;;;;;3.57;3.27;;;13.10;99.90;;;;;;6273657;22;20166;-59
2021/08/29 03:35:13;;;;;;;3.67;3.37;;;13.00;99.90;;;;;;6273126;22;20718;-58
2021/08/29 03:37:40;;;;;;;4.03;3.37;;;13.00;99.90;;;;;;6273728;22;20150;-58
2021/08/29 03:40:07;;;;;;;3.63;3.17;;;12.90;99.90;;;;;;6272872;22;20150;-58
2021/08/29 03:42:34;;;;;;;3.73;3.43;;;12.90;99.90;;;;;;6273245;22;20608;-60
2021/08/29 03:45:01;;;;;;;4.27;3.87;;;12.80;99.90;;;;;;6273058;22;20170;-56
2021/08/29 03:47:28;;;;;;;3.40;3.20;;;12.80;99.90;;;;;;6273691;22;20252;-58
2021/08/29 03:49:54;;;;;;;3.90;3.60;;;12.80;99.90;;;;;;6272991;22;20547;-59
2021/08/29 03:52:21;;;;;;;5.27;4.00;;;12.80;99.90;;;;;;6273179;22;20146;-58
2021/08/29 03:54:47;;;;;;;3.37;3.07;;;12.90;99.90;;;;;;6273000;22;20215;-56
2021/08/29 03:57:13;;;;;;;3.47;3.17;;;12.90;99.90;;;;;;6273354;22;20236;-59
2021/08/29 03:59:39;;;;;;;3.53;3.23;;;12.80;99.90;;;;;;6273238;22;20538;-57
2021/08/29 04:02:05;;;;;;;3.70;3.40;;;12.90;99.90;;;;;;6273236;22;20235;-59
2021/08/29 04:04:32;;;;;;;3.43;3.23;;;13.00;99.90;;;;;;6273821;22;20186;-58
2021/08/29 04:07:02;;;;;;;3.57;3.00;;;13.00;99.90;;;;;;6275158;22;20154;-57
2021/08/29 04:09:30;;;;;;;3.50;3.27;;;13.10;99.90;;;;;;6274947;22;20173;-57
2021/08/29 04:11:56;;;;;;;3.63;3.30;;;13.40;99.90;;;;;;6274873;22;20171;-59
2021/08/29 04:14:22;;;;;;;3.63;3.33;;;13.40;99.90;;;;;;6275085;22;20165;-60
2021/08/29 04:16:49;;;;;;;3.77;3.47;;;13.50;99.90;;;;;;6274812;22;20162;-60
2021/08/29 04:19:16;;;;;;;3.70;3.40;;;13.60;99.90;;;;;;6275039;22;20198;-58
2021/08/29 04:21:42;;;;;;;3.90;3.60;;;13.50;99.90;;;;;;6274758;22;20158;-61
2021/08/29 04:24:08;;;;;;;3.67;3.37;;;13.60;99.90;;;;;;6274848;22;20553;-60
2021/08/29 04:26:34;;;;;;;3.83;3.53;;;13.70;99.90;;;;;;6274800;22;20143;-56
2021/08/29 04:29:00;;;;;;;4.07;3.77;;;13.70;99.90;;;;;;6274792;22;20206;-60
2021/08/29 04:31:32;;;;;;;4.07;3.77;;;13.80;99.90;;;;;;6274809;22;20485;-61
2021/08/29 04:34:02;;;;;;;3.93;3.63;;;13.70;99.90;;;;;;6275015;22;20220;-58
2021/08/29 04:36:32;;;;;;;3.87;3.57;;;13.70;99.90;;;;;;6275549;22;20229;-55
2021/08/29 04:38:59;;;;;;;4.23;3.93;;;13.70;99.90;;;;;;6274939;22;20149;-60
2021/08/29 04:41:25;;;;;;;4.53;4.13;;;13.70;99.90;;;;;;6275078;22;20229;-59
2021/08/29 04:43:51;;;;;;;4.57;4.17;;;13.50;99.90;;;;;;6274883;22;20260;-57
2021/08/29 04:46:16;;;;;;;5.07;4.50;;;13.40;99.90;;;;;;6275111;22;20142;-61
2021/08/29 04:48:42;;;;;;;4.50;4.10;;;14.10;99.90;;;;;;6274095;22;20154;-56
2021/08/29 04:51:07;;;;;;;5.10;4.70;;;13.30;99.90;;;;;;6274623;22;20263;-57
2021/08/29 04:53:33;;;;;;;4.40;4.00;;;13.40;99.90;;;;;;6274434;22;20578;-57
2021/08/29 04:55:58;;;;;;;4.87;4.37;;;13.40;99.90;;;;;;6274834;22;20193;-59
2021/08/29 04:58:24;;;;;;;5.73;4.57;;;13.50;99.90;;;;;;6274209;22;20146;-58
2021/08/29 05:00:49;;;;;;;4.50;4.10;;;13.50;99.90;;;;;;6274481;22;20150;-56
2021/08/29 05:03:15;;;;;;;4.90;4.50;;;13.40;99.90;;;;;;6272598;22;20182;-56
2021/08/29 05:05:41;;;;;;;4.40;4.10;;;13.40;99.90;;;;;;6274758;22;20184;-55
2021/08/29 05:08:06;;;;;;;5.80;5.30;;;13.50;99.90;;;;;;6274530;22;20200;-60
2021/08/29 05:10:32;;;;;;;4.90;4.50;;;13.60;99.90;;;;;;6247120;22;20162;-59
2021/08/29 05:12:57;;;;;;;4.97;4.57;;;13.60;99.90;;;;;;6274331;22;20171;-58
2021/08/29 05:15:23;;;;;;;5.60;5.10;;;13.60;99.90;;;;;;6274366;22;20150;-60
2021/08/29 05:17:48;;;;;;;4.70;3.90;;;13.60;99.90;;;;;;6274448;22;20172;-59
2021/08/29 05:20:14;;;;;;;4.60;4.20;;;13.70;99.90;;;;;;6272323;22;20147;-56
2021/08/29 05:22:40;;;;;;;6.60;5.00;;;13.70;99.90;;;;;;6274223;22;20167;-59
2021/08/29 05:25:06;;;;;;;5.17;4.77;;;13.80;99.90;;;;;;6274184;22;20254;-58
2021/08/29 05:27:31;;;;;;;5.67;5.17;;;13.80;99.90;;;;;;6274497;22;20142;-58
2021/08/29 05:29:57;;;;;;;5.10;4.60;;;13.80;99.90;;;;;;6273940;22;20722;-60
2021/08/29 05:32:22;;;;;;;5.50;5.00;;;13.80;99.90;;;;;;6273838;22;20155;-57
2021/08/29 05:34:48;;;;;;;5.00;4.60;;;13.80;99.90;;;;;;6272575;22;20158;-61
2021/08/29 05:37:13;;;;;;;5.60;4.70;;;13.80;99.90;;;;;;6274203;22;20145;-59
2021/08/29 05:39:39;;;;;;;4.30;4.00;;;13.80;99.90;;;;;;6273644;22;20181;-61
2021/08/29 05:42:04;;;;;;;5.23;4.83;;;13.80;99.90;;;;;;6271086;22;20146;-60
2021/08/29 05:44:31;;;;;;;5.00;4.50;;;13.80;99.90;;;;;;6273418;22;20187;-59
2021/08/29 05:46:56;;;;;;;6.37;4.20;;;13.70;99.90;;;;;;6273315;22;20146;-59
2021/08/29 05:49:22;;;;;;;4.37;4.07;;;13.60;99.90;;;;;;6273499;22;20188;-57
2021/08/29 05:51:47;;;;;;;4.40;3.87;;;13.50;99.90;;;;;;6273585;22;20183;-60
2021/08/29 05:54:13;;;;;;;4.83;4.43;;;13.50;99.90;;;;;;6275044;22;20244;-58
2021/08/29 05:56:39;;;;;;;6.17;4.90;;;14.60;99.90;;;;;;6273787;22;20147;-58
2021/08/29 05:59:04;;;;;;;4.90;4.50;;;13.50;99.90;;;;;;6273420;22;20158;-59
2021/08/29 06:01:30;;;;;;;5.13;4.57;;;13.50;99.90;;;;;;6273964;22;20206;-57
2021/08/29 06:03:55;;;;;;;4.63;4.23;;;13.50;99.90;;;;;;6273602;22;20174;-59
2021/08/29 06:06:21;;;;;;;3.83;3.53;;;13.60;99.90;;;;;;6273812;22;20142;-58
2021/08/29 06:08:46;;;;;;;4.27;3.87;;;13.70;99.90;;;;;;6273460;22;20179;-60
2021/08/29 06:11:12;;;;;;;4.20;3.80;;;13.80;99.90;;;;;;6273622;22;20148;-61
2021/08/29 06:13:38;;;;;;;4.37;3.97;;;13.70;99.90;;;;;;6273687;22;20175;-57
2021/08/29 06:16:04;;;;;;;4.37;4.07;;;13.70;99.90;;;;;;6273516;22;20503;-57
2021/08/29 06:18:29;;;;;;;4.33;3.93;;;13.70;99.90;;;;;;6273035;22;20474;-56
2021/08/29 06:20:55;;;;;;;4.30;3.90;;;13.70;99.90;;;;;;6273589;22;20155;-56
2021/08/29 06:23:20;;;;;;;4.63;4.33;;;13.60;99.90;;;;;;6273376;22;20204;-58
2021/08/29 06:25:46;;;;;;;4.30;3.90;;;13.60;99.90;;;;;;6273511;22;20205;-60
2021/08/29 06:28:12;;;;;;;4.10;3.80;;;13.50;99.90;;;;;;6273075;22;20670;-59
2021/08/29 06:30:37;;;;;;;4.60;4.20;;;13.50;99.90;;;;;;6273365;22;20148;-58
2021/08/29 06:33:03;;;;;;;5.07;3.83;;;14.20;99.90;;;;;;6271669;22;20180;-62
2021/08/29 06:35:28;;;;;;;4.30;3.90;;;13.60;99.90;;;;;;6273553;22;20158;-57
2021/08/29 06:37:54;;;;;;;4.40;4.10;;;13.50;99.90;;;;;;6273384;22;20173;-59
2021/08/29 06:40:19;;;;;;;5.13;4.70;;;13.50;99.90;;;;;;6272918;22;20199;-59
2021/08/29 06:42:45;;;;;;;5.00;4.60;;;13.40;99.90;;;;;;6273402;22;20171;-57
2021/08/29 06:45:11;;;;;;;4.87;4.47;;;13.40;99.90;;;;;;6270903;22;20155;-57
2021/08/29 06:47:37;;;;;;;4.17;3.80;;;13.40;99.90;;;;;;6273043;22;20158;-59
2021/08/29 06:50:04;;;;;;;4.53;4.13;;;13.50;99.90;;;;;;6272768;22;20669;-58
2021/08/29 06:52:29;;;;;;;4.57;4.17;;;13.60;99.90;;;;;;6272952;22;20226;-60
2021/08/29 06:54:55;;;;;;;4.90;4.50;;;13.50;99.90;;;;;;6272858;22;20624;-60
2021/08/29 06:57:24;;;;;;;4.60;4.20;;;14.30;99.90;;;;;;6273289;22;20144;-59
2021/08/29 06:59:50;;;;;;;5.27;4.67;;;13.50;99.90;;;;;;6272525;22;20143;-55
2021/08/29 07:02:16;;;;;;;4.80;4.40;;;13.50;99.90;;;;;;6273427;22;20170;-59
2021/08/29 07:04:42;;;;;;;5.03;4.60;;;13.50;99.90;;;;;;6272880;22;20669;-56
2021/08/29 07:07:08;;;;;;;4.63;4.23;;;13.50;99.90;;;;;;6273284;22;20201;-59
2021/08/29 07:09:37;;;;;;;5.00;4.60;;;13.50;99.90;;;;;;6272827;22;20168;-56
2021/08/29 07:12:03;;;;;;;5.40;5.00;;;13.60;99.90;;;;;;6270610;22;20526;-57
2021/08/29 07:14:29;;;;;;;4.83;4.43;;;13.50;99.90;;;;;;6272649;22;20230;-59
2021/08/29 07:16:54;;;;;;;5.60;5.10;;;13.50;99.90;;;;;;6272659;22;20154;-60
2021/08/29 07:19:20;;;;;;;6.00;5.23;;;13.60;99.90;;;;;;6271005;22;20161;-60
2021/08/29 07:21:45;;;;;;;5.67;5.17;;;13.70;99.90;;;;;;6272795;22;20235;-57
2021/08/29 07:24:11;;;;;;;6.17;5.60;;;13.70;99.90;;;;;;6272940;22;20183;-54
2021/08/29 07:26:36;;;;;;;5.80;5.30;;;13.60;99.90;;;;;;6273010;22;20157;-59
2021/08/29 07:29:02;;;;;;;5.90;5.40;;;13.60;99.90;;;;;;6272558;22;20149;-60
2021/08/29 07:31:27;;;;;;;6.20;5.60;;;14.20;99.90;;;;;;6272838;22;20197;-60
2021/08/29 07:33:55;;;;;;;6.77;5.33;;;13.60;99.90;;;;;;6273167;22;20218;-60
2021/08/29 07:36:20;;;;;;;5.50;5.10;;;13.70;99.90;;;;;;6273139;22;20181;-58
2021/08/29 07:38:46;;;;;;;5.63;5.13;;;13.70;99.90;;;;;;6272442;22;20602;-56
2021/08/29 07:41:12;;;;;;;6.37;5.37;;;13.80;99.90;;;;;;6274998;22;20159;-59
2021/08/29 07:43:37;;;;;;;6.47;5.87;;;13.80;99.90;;;;;;6274555;22;20632;-56
2021/08/29 07:46:03;;;;;;;6.67;5.97;;;14.10;99.90;;;;;;6273872;22;20145;-58
2021/08/29 07:48:28;;;;;;;5.97;5.47;;;14.00;99.90;;;;;;6272783;22;20181;-54
2021/08/29 07:50:54;;;;;;;7.10;6.50;;;14.10;99.90;;;;;;6274791;22;20148;-58
2021/08/29 07:53:19;;;;;;;6.10;5.60;;;14.10;99.90;;;;;;6274854;22;20244;-60
2021/08/29 07:55:45;;;;;;;6.43;5.77;;;14.00;99.90;;;;;;6274710;22;20247;-60
2021/08/29 07:58:10;;;;;;;6.40;5.80;;;14.00;99.90;;;;;;6274648;22;20514;-56
2021/08/29 08:00:36;;;;;;;7.47;6.60;;;14.20;99.90;;;;;;6274846;22;20224;-58
2021/08/29 08:03:02;;;;;;;7.87;6.10;;;14.20;99.90;;;;;;6274940;22;20596;-60
2021/08/29 08:05:27;;;;;;;6.47;5.90;;;14.20;99.90;;;;;;6275096;22;20142;-54
2021/08/29 08:07:53;;;;;;;6.50;5.90;;;14.40;99.90;;;;;;6273517;22;20146;-57
2021/08/29 08:10:21;;;;;;;7.20;6.17;;;14.40;99.90;;;;;;6274819;22;20154;-59
2021/08/29 08:12:46;;;;;;;6.67;6.00;;;14.40;99.90;;;;;;6275063;22;20189;-58
2021/08/29 08:15:12;;;;;;;6.63;6.03;;;14.50;99.90;;;;;;6274886;22;20488;-58
2021/08/29 08:17:39;;;;;;;7.27;6.67;;;14.60;99.90;;;;;;6275065;22;20154;-52
2021/08/29 08:20:07;;;;;;;6.77;6.17;;;14.60;99.90;;;;;;6274082;22;20157;-58
2021/08/29 08:22:33;;;;;;;7.53;6.83;;;14.60;99.90;;;;;;6274952;22;20169;-59
2021/08/29 08:24:58;;;;;;;7.33;6.57;;;14.50;99.90;;;;;;6274473;22;20173;-58
2021/08/29 08:27:24;;;;;;;7.43;6.73;;;14.40;99.90;;;;;;6274790;22;20146;-57
2021/08/29 08:29:50;;;;;;;7.13;6.53;;;14.70;99.90;;;;;;6272975;22;20501;-55
2021/08/29 08:32:15;;;;;;;6.80;6.20;;;14.40;99.90;;;;;;6274775;22;20647;-58
2021/08/29 08:34:41;;;;;;;7.47;6.87;;;14.60;99.90;;;;;;6274706;22;20172;-60
2021/08/29 08:37:06;;;;;;;8.00;7.30;;;14.60;99.90;;;;;;6274958;22;20154;-56
2021/08/29 08:39:32;;;;;;;7.33;6.73;;;14.60;99.90;;;;;;6274603;22;20154;-58
2021/08/29 08:41:58;;;;;;;8.27;7.57;;;14.60;99.90;;;;;;6274402;22;20150;-59
2021/08/29 08:44:24;;;;;;;7.43;6.83;;;14.80;99.90;;;;;;6274545;22;20174;-57
2021/08/29 08:46:52;;;;;;;7.83;7.13;;;14.70;99.90;;;;;;6274403;22;20154;-57
2021/08/29 08:49:19;;;;;;;8.30;7.57;;;15.00;99.90;;;;;;6274459;22;20627;-54
2021/08/29 08:51:46;;;;;;;8.87;7.43;;;15.10;99.90;;;;;;6274170;22;20577;-59
2021/08/29 08:54:14;;;;;;;8.10;7.40;;;15.10;99.90;;;;;;6274606;22;20186;-58
2021/08/29 08:56:40;;;;;;;7.97;7.00;;;15.20;99.90;;;;;;6274828;22;20227;-58
2021/08/29 08:59:07;;;;;;;7.80;7.10;;;15.00;99.90;;;;;;6273871;22;20150;-60
2021/08/29 09:01:32;;;;;;;7.97;7.27;;;14.90;99.90;;;;;;6274548;22;20150;-57
2021/08/29 09:03:58;;;;;;;7.67;7.07;;;14.80;99.90;;;;;;6272526;22;20239;-59
2021/08/29 09:06:24;;;;;;;7.90;7.20;;;14.70;99.90;;;;;;6274476;22;20225;-58
2021/08/29 09:08:50;;;;;;;7.57;6.87;;;14.70;99.90;;;;;;6246810;22;20154;-61
2021/08/29 09:11:15;;;;;;;6.90;6.30;;;14.60;99.90;;;;;;6273687;22;20196;-57
2021/08/29 09:13:47;;;;;;;7.13;6.53;;;14.80;99.90;;;;;;6273938;22;20478;-60
2021/08/29 09:16:13;;;;;;;7.10;6.40;;;14.80;99.90;;;;;;6274396;22;20162;-57
2021/08/29 09:18:54;;;;;;;7.13;6.53;;;14.80;99.90;;;;;;6274176;22;20161;-57
2021/08/29 09:21:23;;;;;;;6.80;6.20;;;14.80;99.90;;;;;;6274373;22;20153;-59
2021/08/29 09:23:49;;;;;;;6.90;6.30;;;15.00;99.90;;;;;;6274025;22;20192;-56
2021/08/29 09:26:20;;;;;;;8.00;7.27;;;15.00;99.90;;;;;;6274531;22;20640;-57
2021/08/29 09:28:50;;;;;;;8.17;6.90;;;15.00;99.90;;;;;;6273700;22;20138;-60
2021/08/29 09:31:18;;;;;;;7.47;6.87;;;15.00;99.90;;;;;;6272408;22;20667;-57
2021/08/29 09:33:58;;;;;;;7.60;7.00;;;15.00;99.90;;;;;;6273698;22;20170;-60
2021/08/29 09:36:30;;;;;;;7.27;6.67;;;15.20;99.90;;;;;;6274139;22;20145;-59
2021/08/29 09:39:14;;;;;;;7.93;7.23;;;15.20;99.90;;;;;;6273578;22;20604;-56
2021/08/29 09:41:41;;;;;;;7.70;7.00;;;15.30;99.90;;;;;;6274195;22;20221;-58
2021/08/29 09:44:11;;;;;;;6.60;6.03;;;15.30;99.90;;;;;;6273934;22;20181;-57
2021/08/29 09:47:01;;;;;;;6.23;5.73;;;15.60;99.90;;;;;;6273753;22;20156;-59
2021/08/29 09:49:30;;;;;;;6.00;5.50;;;16.20;99.90;;;;;;6273756;22;20138;-58
2021/08/29 09:51:59;;;;;;;5.40;5.00;;;16.50;99.90;;;;;;6274009;22;20170;-60
2021/08/29 09:54:32;;;;;;;5.43;5.03;;;16.70;99.90;;;;;;6274020;22;20214;-57
2021/08/29 09:56:59;;;;;;;4.90;4.50;;;16.60;99.90;;;;;;6273653;22;20158;-57
2021/08/29 09:59:44;;;;;;;5.20;4.80;;;16.50;99.90;;;;;;6273668;22;20163;-58
2021/08/29 10:02:22;;;;;;;4.63;4.23;;;16.60;99.90;;;;;;6273398;22;20156;-59
2021/08/29 10:04:48;;;;;;;4.93;4.40;;;16.70;99.90;;;;;;6273677;22;20497;-58
2021/08/29 10:07:16;;;;;;;4.80;4.40;;;16.80;99.90;;;;;;6273733;22;20146;-57
2021/08/29 10:09:42;;;;;;;4.50;4.20;;;17.00;99.90;;;;;;6273841;22;20153;-58
2021/08/29 10:12:09;;;;;;;3.43;3.23;;;17.40;99.90;;;;;;6274001;22;20150;-59
2021/08/29 10:14:39;;;;;;;3.90;3.60;;;18.00;99.90;;;;;;6273757;22;20170;-59
2021/08/29 10:17:05;;;;;;;4.13;3.83;;;18.30;99.90;;;;;;6273847;22;20177;-56
2021/08/29 10:19:32;;;;;;;4.63;3.80;;;18.10;99.90;;;;;;6273483;22;20177;-60
2021/08/29 10:21:59;;;;;;;4.40;4.10;;;17.80;99.90;;;;;;6273566;22;20535;-60
2021/08/29 10:24:29;;;;;;;4.13;3.83;;;17.80;99.90;;;;;;6273485;22;20174;-57
2021/08/29 10:26:58;;;;;;;3.90;3.60;;;17.60;99.90;;;;;;6273566;22;20150;-59
2021/08/29 10:29:28;;;;;;;3.90;3.63;;;17.40;99.90;;;;;;6273367;22;20142;-56
2021/08/29 10:32:29;;;;;;;4.17;3.87;;;17.10;99.90;;;;;;6273832;22;20226;-59
2021/08/29 10:34:55;;;;;;;3.80;3.50;;;17.00;99.90;;;;;;6273765;22;20138;-56
2021/08/29 10:37:21;;;;;;;3.17;2.97;;;17.10;99.90;;;;;;6273228;22;20640;-61
2021/08/29 10:39:49;;;;;;;3.00;2.80;;;17.40;99.90;;;;;;6273064;22;20173;-60
2021/08/29 10:42:15;;;;;;;3.10;2.90;;;17.70;99.90;;;;;;6273454;22;20660;-60
2021/08/29 10:44:41;;;;;;;3.20;3.00;;;18.10;99.90;;;;;;6273263;22;20205;-61
2021/08/29 10:47:08;;;;;;;3.07;2.87;;;18.50;99.90;;;;;;6273325;22;20149;-57
2021/08/29 10:49:35;;;;;;;2.70;2.50;;;18.80;99.90;;;;;;6273282;22;20157;-61
2021/08/29 10:52:01;;;;;;;2.50;2.40;;;19.10;99.90;;;;;;6272112;22;20150;-60
2021/08/29 10:54:29;;;;;;;2.40;2.30;;;19.20;99.90;;;;;;6272912;22;20516;-60
2021/08/29 10:56:54;;;;;;;3.03;2.73;;;18.80;99.90;;;;;;6271876;22;20258;-57
2021/08/29 10:59:22;;;;;;;2.70;2.50;;;18.30;99.90;;;;;;6272484;22;20174;-54
2021/08/29 11:01:50;;;;;;;3.00;2.80;;;17.90;99.90;;;;;;6272871;22;20150;-56
2021/08/29 11:04:21;;;;;;;3.03;2.83;;;17.40;99.90;;;;;;6272915;22;20178;-58
2021/08/29 11:06:57;;;;;;;2.90;2.70;;;17.00;99.90;;;;;;6273210;22;20184;-56
2021/08/29 11:09:32;;;;;;;2.97;2.77;;;16.90;99.90;;;;;;6271512;22;20141;-58
2021/08/29 11:11:59;;;;;;;3.87;3.57;;;16.90;99.90;;;;;;6273016;22;20146;-56
2021/08/29 11:14:49;;;;;;;4.40;4.10;;;16.90;99.90;;;;;;6273279;22;20508;-56
2021/08/29 11:17:19;;;;;;;4.13;3.83;;;16.80;99.90;;;;;;6274797;22;20135;-55
2021/08/29 11:19:50;;;;;;;3.73;3.47;;;16.90;99.90;;;;;;6275012;22;20137;-59
2021/08/29 11:22:21;;;;;;;4.43;3.90;;;17.30;99.90;;;;;;6274878;22;20140;-55
2021/08/29 11:24:49;;;;;;;3.60;3.40;;;17.10;99.90;;;;;;6274854;22;20251;-59
2021/08/29 11:27:33;;;;;;;3.27;3.07;;;17.40;99.90;;;;;;6273562;22;20143;-58
2021/08/29 11:29:59;;;;;;;3.03;2.73;;;17.50;99.90;;;;;;6275074;22;20143;-56
2021/08/29 11:32:44;;;;;;;3.00;2.80;;;18.00;99.90;;;;;;6275165;22;20155;-58
2021/08/29 11:35:12;;;;;;;2.90;2.70;;;18.50;99.90;;;;;;6248099;22;20153;-60
2021/08/29 11:37:38;;;;;;;3.23;2.93;;;18.70;99.90;;;;;;6275192;22;20150;-56
2021/08/29 11:40:07;;;;;;;3.03;2.40;;;18.60;99.90;;;;;;6275130;22;20150;-57
2021/08/29 11:42:34;;;;;;;2.70;2.60;;;19.20;99.90;;;;;;6275318;22;20519;-61
2021/08/29 11:45:01;;;;;;;2.80;2.60;;;19.30;99.90;;;;;;6275170;22;20205;-58
2021/08/29 11:47:48;;;;;;;3.10;2.90;;;19.50;99.90;;;;;;6274743;22;20142;-59
2021/08/29 11:50:13;;;;;;;3.10;2.90;;;19.20;99.90;;;;;;6274830;22;20180;-60
2021/08/29 11:52:39;;;;;;;3.10;2.90;;;19.20;99.90;;;;;;6275001;22;20170;-61
2021/08/29 11:55:13;;;;;;;2.75;2.50;;;19.30;99.90;;;;;;6300169;22;20201;-55
2021/08/29 11:57:54;;;;;;;2.83;2.63;;;19.50;99.90;;;;;;6305727;22;20138;-57
2021/08/29 12:00:23;;;;;;;2.53;2.33;;;19.70;99.90;;;;;;6305807;22;20138;-54
2021/08/29 12:02:53;;;;;;;3.22;2.70;;;19.70;99.90;;;;;;6305694;22;20156;-53
2021/08/29 12:05:20;;;;;;;2.97;2.78;;;20.00;99.90;;;;;;6278754;22;20187;-60
2021/08/29 12:08:11;;;;;;;3.67;3.38;;;20.00;99.90;;;;;;6275011;22;20523;-57
2021/08/29 12:10:37;;;;;;;3.40;3.20;;;19.50;99.90;;;;;;6274791;22;20138;-56
2021/08/29 12:13:04;;;;;;;3.23;3.03;;;18.60;99.90;;;;;;6275108;22;20203;-57
2021/08/29 12:15:30;;;;;;;3.60;3.37;;;18.30;99.90;;;;;;6275009;22;20172;-58
2021/08/29 12:18:01;;;;;;;4.20;3.90;;;18.10;99.90;;;;;;6275150;22;20153;-56
2021/08/29 12:20:28;;;;;;;3.70;3.40;;;18.10;99.90;;;;;;6275176;22;20148;-60
2021/08/29 12:23:08;;;;;;;3.67;3.40;;;18.20;99.90;;;;;;6275095;22;20195;-58
2021/08/29 12:25:34;;;;;;;3.50;3.30;;;18.20;99.90;;;;;;6274771;22;20178;-54
2021/08/29 12:28:12;;;;;;;3.10;2.90;;;18.40;99.90;;;;;;6275061;22;20153;-58
2021/08/29 12:30:38;;;;;;;4.77;4.13;;;18.60;99.90;;;;;;6274822;22;20142;-58
2021/08/29 12:33:12;;;;;;;3.73;3.50;;;18.50;99.90;;;;;;6275072;22;20154;-58
2021/08/29 12:35:38;;;;;;;4.40;4.10;;;18.30;99.90;;;;;;6275553;22;20138;-58
2021/08/29 12:38:19;;;;;;;4.30;4.00;;;18.20;99.90;;;;;;6275187;22;20157;-57
2021/08/29 12:40:45;;;;;;;4.00;3.70;;;18.00;99.90;;;;;;6274720;22;20233;-56
2021/08/29 12:43:11;;;;;;;6.73;4.23;;;18.00;99.90;;;;;;6274983;22;20153;-57
2021/08/29 12:45:36;;;;;;;4.70;4.40;;;18.00;99.90;;;;;;6275118;22;20189;-58
2021/08/29 12:48:02;;;;;;;4.63;4.23;;;18.00;99.90;;;;;;6275096;22;20154;-54
2021/08/29 12:50:29;;;;;;;4.30;4.00;;;18.20;99.90;;;;;;6275025;22;20195;-56